Terminal Aerodrome Forecast
Issued by NWS Charleston, WV

Current Version | Previous Version | Text Only | Print | Product List | Glossary Off
Versions: 1 2 3 4 5 6 7 8 9 10 11 12 13 14 15 16 17 18 19 20 21 22 23

334
FTUS41 KRLX 270551
TAFBKW
TAF
KBKW 270551Z 2706/2806 16010KT P6SM FEW250
     FM271700 19010KT P6SM BKN110
     FM271900 20010KT P6SM SHRA VCTS OVC050CB
     FM272200 21008KT P6SM BKN050
     FM280300 25004KT P6SM BKN050=

USA.gov is the U.S. government's official web portal to all federal, state and local government web resources and services.